Impacts TAF Board
For situational awareness. Not to be used for flight planning purposes.
IDs:

KJFK - New York/Kennedy Int, NY, US

Issued at 1734 UTC 22 Sep 2018
Updated at 1830 UTC 22 Sep 2018
Potential Impact None Slight Moderate High
Time1751Z 22/19Z 22/20Z 22/21Z 22/22Z 22/23Z 23/00Z 23/01Z 23/02Z 23/03Z 23/04Z 23/05Z 23/06Z 23/07Z>>
Type OBS PRVL PRVL PRVL PRVL PRVL PRVL PRVL PRVL PRVL PRVL PRVL PRVL PRVL
VIS 10 >6 >6 >6 >6 >6 >6 >6 >6 >6 >6 >6 >6 >6
CIG 150 -- -- 200 200 200 200 200 200 200 200 200 200 200
Cover BKN SCT SCT BKN BKN BKN BKN BKN BKN BKN BKN BKN BKN BKN
FltCat VFR VFR VFR VFR VFR VFR VFR VFR VFR VFR VFR VFR VFR VFR
WX -- -- -- -- -- -- -- -- -- -- -- -- -- --
WDir 10 360 360 360 360 360 360 360 20 20 20 20 20 50
WSpd 11 11 11 10 10 10 10 10 8 8 8 8 8 6
WGst -- 18 18 -- -- -- -- -- -- -- -- -- -- --
Raw TAF
KJFK 221734Z 2218/2324 36011G18KT P6SM FEW040 SCT200
  FM222100 36010KT P6SM SCT040 BKN200
  FM230200 02008KT P6SM BKN200
  FM230700 05006KT P6SM SCT040 BKN200
  FM231400 08007KT P6SM SCT040 BKN200
  FM231700 14008KT P6SM BKN035
  FM232200 15004KT P6SM BKN035


Raw METAR
KJFK 221751Z 01011KT 10SM FEW045 BKN150 BKN250 23/13 A3013 RMK AO2 SLP203 T02280128 10239 20217 53008
KJFK 221651Z 01010G18KT 330V030 10SM FEW040 BKN150 BKN250 24/13 A3012 RMK AO2 SLP199 T02390133
KJFK 221551Z 34011KT 10SM FEW040 BKN150 BKN250 24/14 A3011 RMK AO2 SLP197 T02390144

METAR Board
Radar Display
Forecast Discussion
For situational awareness. Not to be used for flight planning purposes.